< < Back
Terminal Aerodrome Forecast


Current Version              Previous Versions:   1  2  3  4  5  6  7  8  9  

Terminal Aerodrome Forecast

136
FTUS42 KFFC 302300
TAFMCN
TAF
KMCN 302322Z 0100/0124 00000KT P6SM SKC
     FM011000 00000KT 2SM BR SCT008 SCT030
     FM011400 23005KT P6SM SCT040=



Latest METAR

570
SAUS80 KWBC 010800 RRF
MTRMCN
METAR KMCN 010753Z AUTO 27003KT 5SM BR CLR 16/16 A2991 RMK AO2 SLP126
T01560156 TSNO


USA.gov is the U.S. government's official web portal to all federal, state and local government web resources and services.